createdAt,value
2019-02-05T00:01:38.393Z,13.85
2019-02-05T00:04:05.800Z,14.10
2019-02-05T00:06:33.364Z,13.78
2019-02-05T00:09:01.238Z,16.75
2019-02-05T00:11:28.889Z,14.03
2019-02-05T00:13:56.605Z,21.62
2019-02-05T00:16:24.153Z,16.80
2019-02-05T00:18:51.807Z,15.58
2019-02-05T00:21:19.878Z,15.23
2019-02-05T00:23:47.693Z,13.80
2019-02-05T00:26:15.366Z,22.10
2019-02-05T00:28:43.073Z,21.07
2019-02-05T00:31:10.426Z,18.85
2019-02-05T00:33:37.856Z,18.60
2019-02-05T00:36:05.798Z,29.40
2019-02-05T00:38:33.364Z,31.17
2019-02-05T00:41:00.534Z,27.80
2019-02-05T00:43:27.801Z,22.48
2019-02-05T00:45:55.375Z,21.65
2019-02-05T00:48:22.557Z,21.00
2019-02-05T00:50:49.996Z,17.00
2019-02-05T00:53:17.089Z,15.48
2019-02-05T00:55:44.632Z,16.50
2019-02-05T01:00:40.705Z,19.67
2019-02-05T01:03:08.136Z,30.02
2019-02-05T01:05:35.285Z,37.83
2019-02-05T01:08:02.809Z,34.10
2019-02-05T01:10:30.359Z,23.73
2019-02-05T01:12:58.508Z,20.57
2019-02-05T01:15:26.044Z,21.30
2019-02-05T01:17:53.455Z,24.15
2019-02-05T01:20:20.997Z,28.95
2019-02-05T01:22:48.276Z,25.60
2019-02-05T01:25:15.925Z,20.88
2019-02-05T01:27:43.841Z,17.85
2019-02-05T01:30:13.778Z,19.30
2019-02-05T01:32:41.297Z,20.45
2019-02-05T01:35:08.662Z,20.27
2019-02-05T01:37:38.537Z,22.67
2019-02-05T01:40:07.213Z,30.35
2019-02-05T01:42:34.501Z,22.27
2019-02-05T01:45:01.820Z,23.62
2019-02-05T01:47:29.181Z,27.32
2019-02-05T01:49:56.869Z,24.65
2019-02-05T01:52:24.969Z,22.93
2019-02-05T01:54:52.286Z,23.22
2019-02-05T01:57:19.751Z,23.67
2019-02-05T01:59:47.163Z,21.10
2019-02-05T02:02:14.978Z,23.62
2019-02-05T02:04:42.398Z,29.05
2019-02-05T02:07:09.506Z,28.87
2019-02-05T02:09:36.684Z,23.02
2019-02-05T02:12:03.684Z,26.17
2019-02-05T02:14:31.166Z,25.40
2019-02-05T02:16:58.449Z,26.07
2019-02-05T02:19:26.219Z,22.20
2019-02-05T02:21:53.365Z,22.77
2019-02-05T02:24:20.798Z,22.50
2019-02-05T02:26:52.071Z,19.50
2019-02-05T02:29:17.476Z,19.45
2019-02-05T02:31:44.742Z,17.65
2019-02-05T02:34:12.324Z,17.30
2019-02-05T02:36:40.165Z,18.37
2019-02-05T02:39:07.799Z,17.30
2019-02-05T02:41:35.246Z,17.73
2019-02-05T02:44:02.637Z,19.45
2019-02-05T02:46:29.696Z,19.07
2019-02-05T02:48:57.153Z,23.15
2019-02-05T02:51:24.567Z,22.05
2019-02-05T02:53:52.757Z,20.20
2019-02-05T02:56:20.381Z,29.05
2019-02-05T02:58:47.794Z,26.52
2019-02-05T03:01:15.642Z,25.02
2019-02-05T03:03:42.914Z,20.23
2019-02-05T03:06:10.289Z,20.10
2019-02-05T03:08:37.568Z,20.50
2019-02-05T03:11:05.207Z,25.82
2019-02-05T03:13:33.459Z,21.70
2019-02-05T03:16:01.081Z,22.00
2019-02-05T03:18:28.545Z,20.52
2019-02-05T03:20:56.099Z,19.62
2019-02-05T03:23:24.021Z,19.77
2019-02-05T03:25:51.314Z,20.30
2019-02-05T03:28:18.873Z,18.45
2019-02-05T03:30:46.322Z,18.50
2019-02-05T03:33:13.795Z,19.00
2019-02-05T03:35:41.219Z,21.90
2019-02-05T03:38:09.085Z,28.07
2019-02-05T03:41:05.047Z,25.30
2019-02-05T03:43:33.297Z,27.17
2019-02-05T03:46:05.834Z,23.10
2019-02-05T03:48:33.321Z,21.07
2019-02-05T03:52:03.478Z,28.98
2019-02-05T03:55:01.634Z,19.65
2019-02-05T03:58:04.381Z,19.98
2019-02-05T04:01:04.776Z,20.05
2019-02-05T04:04:38.522Z,22.82
2019-02-05T04:07:42.066Z,20.15
2019-02-05T04:10:29.450Z,21.95
2019-02-05T04:13:37.023Z,28.47
2019-02-05T04:16:50.570Z,27.10
2019-02-05T04:19:45.475Z,23.95
2019-02-05T04:22:38.425Z,28.23
2019-02-05T04:25:42.102Z,36.45
2019-02-05T04:28:56.653Z,37.17
2019-02-05T04:31:47.804Z,28.50
2019-02-05T04:34:51.399Z,26.15
2019-02-05T04:37:42.394Z,23.38
2019-02-05T04:40:36.486Z,24.20
2019-02-05T04:43:35.862Z,26.27
2019-02-05T04:46:52.105Z,29.52
2019-02-05T04:49:53.990Z,26.50
2019-02-05T04:53:16.193Z,26.62
2019-02-05T04:55:58.297Z,26.23
2019-02-05T04:58:58.509Z,20.65
2019-02-05T05:01:57.945Z,21.42
2019-02-05T05:04:48.738Z,23.18
2019-02-05T05:08:25.278Z,22.50
2019-02-05T05:10:52.535Z,19.05
2019-02-05T05:13:20.054Z,20.08
2019-02-05T05:15:47.955Z,20.10
2019-02-05T05:18:15.719Z,20.35
2019-02-05T05:20:43.700Z,19.23
2019-02-05T05:23:11.073Z,20.17
2019-02-05T05:25:38.697Z,18.27
2019-02-05T05:28:10.161Z,19.45
2019-02-05T05:30:36.337Z,20.05
2019-02-05T05:33:03.809Z,22.07
2019-02-05T05:35:41.685Z,24.63
2019-02-05T05:38:00.970Z,25.70
2019-02-05T05:40:28.677Z,25.65
2019-02-05T05:42:55.880Z,29.35
2019-02-05T05:45:23.685Z,35.78
2019-02-05T05:47:51.393Z,33.08
2019-02-05T05:50:21.183Z,32.95
2019-02-05T05:52:47.498Z,31.80
2019-02-05T05:55:14.673Z,34.53
2019-02-05T05:57:41.847Z,32.73
2019-02-05T06:00:13.363Z,34.33
2019-02-05T06:02:40.320Z,31.48
2019-02-05T06:05:07.750Z,34.05
2019-02-05T06:07:35.434Z,33.05
2019-02-05T06:10:07.038Z,33.33
2019-02-05T06:12:33.481Z,36.33
2019-02-05T06:15:00.831Z,36.25
2019-02-05T06:17:28.341Z,43.87
2019-02-05T06:19:55.792Z,33.58
2019-02-05T06:22:22.953Z,33.70
2019-02-05T06:24:50.491Z,38.73
2019-02-05T06:27:17.888Z,32.42
2019-02-05T06:29:45.833Z,30.62
2019-02-05T06:32:13.254Z,29.07
2019-02-05T06:34:40.921Z,28.80
2019-02-05T06:37:08.266Z,36.30
2019-02-05T06:39:35.969Z,32.15
2019-02-05T06:42:03.094Z,42.30
2019-02-05T06:44:30.810Z,31.93
2019-02-05T06:46:58.269Z,33.55
2019-02-05T06:49:26.084Z,29.25
2019-02-05T06:51:53.609Z,24.85
2019-02-05T06:54:20.771Z,31.87
2019-02-05T06:56:48.297Z,38.53
2019-02-05T06:59:15.982Z,37.00
2019-02-05T07:01:43.169Z,33.70
2019-02-05T07:04:10.621Z,36.95
2019-02-05T07:06:38.557Z,34.50
2019-02-05T07:09:08.455Z,37.75
2019-02-05T07:11:36.021Z,45.83
2019-02-05T07:14:04.389Z,69.07
2019-02-05T07:16:31.908Z,47.80
2019-02-05T07:18:58.981Z,44.35
2019-02-05T07:21:25.898Z,37.38
2019-02-05T07:23:53.318Z,39.75
2019-02-05T07:26:21.486Z,37.00
2019-02-05T07:28:58.211Z,37.38
2019-02-05T07:31:18.247Z,36.58
2019-02-05T07:33:45.561Z,34.38
2019-02-05T07:36:13.114Z,30.85
2019-02-05T07:38:40.069Z,27.90
2019-02-05T07:41:07.354Z,27.55
2019-02-05T07:43:34.338Z,41.08
2019-02-05T07:46:01.688Z,38.55
2019-02-05T07:48:30.553Z,36.25
2019-02-05T07:50:58.007Z,40.70
2019-02-05T07:53:25.380Z,42.80
2019-02-05T07:55:52.881Z,43.87
2019-02-05T07:58:20.421Z,38.40
2019-02-05T08:00:47.929Z,35.90
2019-02-05T08:03:15.254Z,41.10
2019-02-05T08:05:42.405Z,39.85
2019-02-05T08:08:10.166Z,41.05
2019-02-05T08:10:37.171Z,38.25
2019-02-05T08:13:04.542Z,33.80
2019-02-05T08:15:32.693Z,31.42
2019-02-05T08:18:00.081Z,30.23
2019-02-05T08:20:27.720Z,29.85
2019-02-05T08:22:54.839Z,27.62
2019-02-05T08:25:22.461Z,27.50
2019-02-05T08:27:49.991Z,25.68
2019-02-05T08:30:22.713Z,24.90
2019-02-05T08:32:49.892Z,26.23
2019-02-05T08:35:17.257Z,24.63
2019-02-05T08:37:44.898Z,22.90
2019-02-05T08:40:14.266Z,25.12
2019-02-05T08:42:42.151Z,23.77
2019-02-05T08:45:14.181Z,26.20
2019-02-05T08:47:40.747Z,24.85
2019-02-05T08:50:10.867Z,23.25
2019-02-05T08:52:38.125Z,22.45
2019-02-05T08:55:07.473Z,22.25
2019-02-05T08:57:35.557Z,22.98
2019-02-05T09:00:03.883Z,22.55
2019-02-05T09:02:31.279Z,22.40
2019-02-05T09:04:58.279Z,22.82
2019-02-05T09:07:25.702Z,22.70
2019-02-05T09:09:53.262Z,22.52
2019-02-05T09:12:20.970Z,22.87
2019-02-05T09:14:48.688Z,24.35
2019-02-05T09:17:16.358Z,23.15
2019-02-05T09:19:44.139Z,23.20
2019-02-05T09:22:11.591Z,22.37
2019-02-05T09:24:39.158Z,23.05
2019-02-05T09:27:06.320Z,22.62
2019-02-05T09:29:33.845Z,23.02
2019-02-05T09:32:01.623Z,21.60
2019-02-05T09:34:29.050Z,22.40
2019-02-05T09:36:56.447Z,21.62
2019-02-05T09:39:23.711Z,22.73
2019-02-05T09:41:51.482Z,22.77
2019-02-05T09:44:19.146Z,22.93
2019-02-05T09:46:47.018Z,22.52
2019-02-05T09:49:14.429Z,22.50
2019-02-05T09:51:42.265Z,22.42
2019-02-05T09:54:09.583Z,21.35
2019-02-05T09:56:37.491Z,22.32
2019-02-05T09:59:05.452Z,20.92
2019-02-05T10:01:33.221Z,23.60
2019-02-05T10:04:00.469Z,22.02
2019-02-05T10:06:28.237Z,21.87
2019-02-05T10:08:55.385Z,22.20
2019-02-05T10:11:23.200Z,21.10
2019-02-05T10:13:50.605Z,20.85
2019-02-05T10:16:18.249Z,22.22
2019-02-05T10:18:45.979Z,19.70
2019-02-05T10:21:13.161Z,22.70
2019-02-05T10:23:40.305Z,19.10
2019-02-05T10:26:08.170Z,21.52
2019-02-05T10:28:36.332Z,22.15
2019-02-05T10:31:04.230Z,23.77
2019-02-05T10:33:32.422Z,21.48
2019-02-05T10:36:01.390Z,21.85
2019-02-05T10:38:29.986Z,20.08
2019-02-05T10:40:57.442Z,21.97
2019-02-05T10:43:25.057Z,21.73
2019-02-05T10:45:52.742Z,21.75
2019-02-05T10:48:20.223Z,20.08
2019-02-05T10:50:47.919Z,20.12
2019-02-05T10:53:16.090Z,20.90
2019-02-05T10:55:44.014Z,19.82
2019-02-05T10:58:11.669Z,20.70
2019-02-05T11:00:39.417Z,19.25
2019-02-05T11:03:07.347Z,20.65
2019-02-05T11:05:35.276Z,19.05
2019-02-05T11:08:02.665Z,20.77
2019-02-05T11:10:30.021Z,20.10
2019-02-05T11:12:57.661Z,21.27
2019-02-05T11:15:29.546Z,21.95
2019-02-05T11:17:57.264Z,22.42
2019-02-05T11:20:25.773Z,19.60
2019-02-05T11:22:53.421Z,20.75
2019-02-05T11:25:20.778Z,20.60
2019-02-05T11:27:48.033Z,20.62
2019-02-05T11:30:20.433Z,20.88
2019-02-05T11:32:46.460Z,20.82
2019-02-05T11:35:14.222Z,20.23
2019-02-05T11:37:42.109Z,20.57
2019-02-05T11:40:11.757Z,20.48
2019-02-05T11:42:39.405Z,21.50
2019-02-05T11:45:08.431Z,21.45
2019-02-05T11:47:35.893Z,20.32
2019-02-05T11:50:04.509Z,20.57
2019-02-05T11:52:31.674Z,20.00
2019-02-05T11:54:59.093Z,19.82
2019-02-05T11:57:26.741Z,19.05
2019-02-05T11:59:53.970Z,18.70
2019-02-05T12:02:21.666Z,18.95
2019-02-05T12:04:49.094Z,18.50
2019-02-05T12:07:16.129Z,19.82
2019-02-05T12:09:43.489Z,19.57
2019-02-05T12:12:10.735Z,19.95
2019-02-05T12:14:38.279Z,20.05
2019-02-05T12:17:05.885Z,20.20
2019-02-05T12:19:33.910Z,19.62
2019-02-05T12:22:01.181Z,18.37
2019-02-05T12:24:28.449Z,18.27
2019-02-05T12:26:55.888Z,20.60
2019-02-05T12:29:23.257Z,20.00
2019-02-05T12:31:50.718Z,18.25
2019-02-05T12:34:17.879Z,19.05
2019-02-05T12:36:45.528Z,18.37
2019-02-05T12:39:20.032Z,17.70
2019-02-05T12:41:47.277Z,15.88
2019-02-05T12:44:14.540Z,17.98
2019-02-05T12:46:41.958Z,17.82
2019-02-05T12:49:09.130Z,18.50
2019-02-05T12:51:36.638Z,17.48
2019-02-05T12:54:04.686Z,18.62
2019-02-05T12:56:32.629Z,17.07
2019-02-05T12:59:00.221Z,18.17
2019-02-05T13:01:27.645Z,17.45
2019-02-05T13:03:54.926Z,17.50
2019-02-05T13:06:22.253Z,17.87
2019-02-05T13:08:49.771Z,17.75
2019-02-05T13:11:16.965Z,16.85
2019-02-05T13:13:44.324Z,16.07
2019-02-05T13:16:11.345Z,18.02
2019-02-05T13:18:38.637Z,17.92
2019-02-05T13:21:05.758Z,18.82
2019-02-05T13:23:33.166Z,17.45
2019-02-05T13:26:00.704Z,16.37
2019-02-05T13:28:27.877Z,16.60
2019-02-05T13:31:07.346Z,15.58
2019-02-05T13:33:26.674Z,17.17
2019-02-05T13:35:54.142Z,18.85
2019-02-05T13:38:21.589Z,16.48
2019-02-05T13:40:48.608Z,16.37
2019-02-05T13:43:15.762Z,16.23
2019-02-05T13:45:42.865Z,17.42
2019-02-05T13:48:10.181Z,16.20
2019-02-05T13:50:37.793Z,16.85
2019-02-05T13:53:05.520Z,16.10
2019-02-05T13:55:34.997Z,16.50
2019-02-05T13:58:02.380Z,15.35
2019-02-05T14:00:44.222Z,13.65
2019-02-05T14:03:11.495Z,13.25
2019-02-05T14:05:38.945Z,14.85
2019-02-05T14:08:07.103Z,14.70
2019-02-05T14:10:35.075Z,14.50
2019-02-05T14:13:02.594Z,13.38
2019-02-05T14:15:32.093Z,15.00
2019-02-05T14:17:59.633Z,15.45
2019-02-05T14:20:27.086Z,15.15
2019-02-05T14:22:54.610Z,15.30
2019-02-05T14:25:21.855Z,16.73
2019-02-05T14:27:49.530Z,15.98
2019-02-05T14:30:20.546Z,15.28
2019-02-05T14:32:47.825Z,14.65
2019-02-05T14:35:15.337Z,16.62
2019-02-05T14:37:42.855Z,15.13
2019-02-05T14:40:12.566Z,16.93
2019-02-05T14:42:39.837Z,17.40
2019-02-05T14:45:08.695Z,16.95
2019-02-05T14:47:35.870Z,18.55
2019-02-05T14:50:05.173Z,17.45
2019-02-05T14:52:33.183Z,17.35
2019-02-05T14:55:00.387Z,16.50
2019-02-05T14:57:27.890Z,18.30
2019-02-05T14:59:54.957Z,18.23
2019-02-05T15:02:21.865Z,17.60
2019-02-05T15:04:48.685Z,18.15
2019-02-05T15:07:15.833Z,17.27
2019-02-05T15:09:42.997Z,18.55
2019-02-05T15:12:10.069Z,16.25
2019-02-05T15:14:37.517Z,17.23
2019-02-05T15:17:04.696Z,16.15
2019-02-05T15:19:31.624Z,17.50
2019-02-05T15:21:58.785Z,17.48
2019-02-05T15:24:36.860Z,17.35
2019-02-05T15:26:55.314Z,20.00
2019-02-05T15:29:22.381Z,16.48
2019-02-05T15:31:54.578Z,17.60
2019-02-05T15:34:21.863Z,17.65
2019-02-05T15:36:50.034Z,16.73
2019-02-05T15:39:17.213Z,17.17
2019-02-05T15:41:44.217Z,16.75
2019-02-05T15:44:12.481Z,16.42
2019-02-05T15:46:39.901Z,17.12
2019-02-05T15:49:06.703Z,16.87
2019-02-05T15:51:34.324Z,16.48
2019-02-05T15:54:02.113Z,15.23
2019-02-05T15:56:29.158Z,15.10
2019-02-05T15:58:56.481Z,15.08
2019-02-05T16:01:23.965Z,14.98
2019-02-05T16:03:51.909Z,15.13
2019-02-05T16:06:19.070Z,13.53
2019-02-05T16:08:46.135Z,13.60
2019-02-05T16:11:13.581Z,12.65
2019-02-05T16:13:40.385Z,12.88
2019-02-05T16:16:07.429Z,14.07
2019-02-05T16:18:34.593Z,14.03
2019-02-05T16:21:02.488Z,13.72
2019-02-05T16:23:30.102Z,13.30
2019-02-05T16:25:57.678Z,12.53
2019-02-05T16:28:25.029Z,12.37
2019-02-05T16:30:52.353Z,13.28
2019-02-05T16:33:19.694Z,13.48
2019-02-05T16:35:48.845Z,13.50
2019-02-05T16:38:16.324Z,14.33
2019-02-05T16:40:44.020Z,14.25
2019-02-05T16:43:11.193Z,13.00
2019-02-05T16:45:39.109Z,12.70
2019-02-05T16:48:06.922Z,16.07
2019-02-05T16:50:36.657Z,18.62
2019-02-05T16:53:05.637Z,18.60
2019-02-05T16:55:33.443Z,15.68
2019-02-05T16:58:00.730Z,14.85
2019-02-05T17:00:30.075Z,14.70
2019-02-05T17:02:58.150Z,15.13
2019-02-05T17:05:26.883Z,16.77
2019-02-05T17:07:54.317Z,15.88
2019-02-05T17:10:22.051Z,18.67
2019-02-05T17:12:49.722Z,20.35
2019-02-05T17:15:18.031Z,25.45
2019-02-05T17:17:45.643Z,27.22
2019-02-05T17:20:16.746Z,28.55
2019-02-05T17:22:45.079Z,47.00
2019-02-05T17:25:13.839Z,29.15
2019-02-05T17:27:41.773Z,26.23
2019-02-05T17:30:12.582Z,31.15
2019-02-05T17:32:40.637Z,26.60
2019-02-05T17:35:08.707Z,25.30
2019-02-05T17:37:36.517Z,23.07
2019-02-05T17:40:04.629Z,23.32
2019-02-05T17:42:32.451Z,21.80
2019-02-05T17:45:00.173Z,21.35
2019-02-05T17:47:27.573Z,21.07
2019-02-05T17:49:55.141Z,22.25
2019-02-05T17:52:22.464Z,23.70
2019-02-05T17:54:50.146Z,25.75
2019-02-05T17:57:17.961Z,31.48
2019-02-05T17:59:45.044Z,40.30
2019-02-05T18:02:13.158Z,46.73
2019-02-05T18:04:40.586Z,53.20
2019-02-05T18:07:08.108Z,38.60
2019-02-05T18:09:35.707Z,21.97
2019-02-05T18:12:04.478Z,21.80
2019-02-05T18:14:31.981Z,25.37
2019-02-05T18:16:59.257Z,19.42
2019-02-05T18:19:27.071Z,19.82
2019-02-05T18:21:54.818Z,20.37
2019-02-05T18:24:22.913Z,23.45
2019-02-05T18:26:50.997Z,29.65
2019-02-05T18:29:18.734Z,36.65
2019-02-05T18:31:46.034Z,41.45
2019-02-05T18:34:14.906Z,39.63
2019-02-05T18:36:43.337Z,40.80
2019-02-05T18:39:11.449Z,42.03
2019-02-05T18:41:38.757Z,39.30
2019-02-05T18:44:06.124Z,42.13
2019-02-05T18:46:33.542Z,44.30
2019-02-05T18:49:06.069Z,32.35
2019-02-05T18:51:30.308Z,26.52
2019-02-05T18:53:57.845Z,36.23
2019-02-05T18:56:25.474Z,36.70
2019-02-05T18:58:53.190Z,31.82
2019-02-05T19:01:20.452Z,28.07
2019-02-05T19:03:48.073Z,30.10
2019-02-05T19:06:15.422Z,26.68
2019-02-05T19:08:42.861Z,25.48
2019-02-05T19:11:10.977Z,20.62
2019-02-05T19:13:38.345Z,19.57
2019-02-05T19:16:05.609Z,20.37
2019-02-05T19:18:33.514Z,25.12
2019-02-05T19:21:00.957Z,37.05
2019-02-05T19:23:29.291Z,30.65
2019-02-05T19:26:01.233Z,34.20
2019-02-05T19:28:30.474Z,35.28
2019-02-05T19:31:01.276Z,22.42
2019-02-05T19:33:28.669Z,22.42
2019-02-05T19:35:56.593Z,30.15
2019-02-05T19:38:24.393Z,28.60
2019-02-05T19:40:57.448Z,28.92
2019-02-05T19:43:23.359Z,26.70
2019-02-05T19:46:17.884Z,29.20
2019-02-05T19:48:49.525Z,26.35
2019-02-05T19:51:17.265Z,29.00
2019-02-05T19:53:44.910Z,23.77
2019-02-05T19:56:14.702Z,24.72
2019-02-05T19:58:42.116Z,25.25
2019-02-05T20:01:09.633Z,25.05
2019-02-05T20:03:39.043Z,26.12
2019-02-05T20:06:06.774Z,32.35
2019-02-05T20:08:33.753Z,31.48
2019-02-05T20:11:01.497Z,30.57
2019-02-05T20:13:39.599Z,23.05
2019-02-05T20:15:58.101Z,20.82
2019-02-05T20:18:25.940Z,23.42
2019-02-05T20:20:53.129Z,20.85
2019-02-05T20:23:20.598Z,22.22
2019-02-05T20:25:48.274Z,22.45
2019-02-05T20:28:24.807Z,22.20
2019-02-05T20:30:53.745Z,24.00
2019-02-05T20:33:21.392Z,26.05
2019-02-05T20:35:49.542Z,29.00
2019-02-05T20:38:17.103Z,29.18
2019-02-05T20:40:44.645Z,26.68
2019-02-05T20:43:11.916Z,25.35
2019-02-05T20:45:40.108Z,23.18
2019-02-05T20:48:07.141Z,22.13
2019-02-05T20:50:34.698Z,26.10
2019-02-05T20:53:13.049Z,25.62
2019-02-05T20:55:32.137Z,25.52
2019-02-05T20:57:59.962Z,26.20
2019-02-05T21:00:27.227Z,30.35
2019-02-05T21:02:54.604Z,27.62
2019-02-05T21:05:22.140Z,31.70
2019-02-05T21:07:49.782Z,34.45
2019-02-05T21:10:19.829Z,31.90
2019-02-05T21:12:47.435Z,32.23
2019-02-05T21:15:15.640Z,26.20
2019-02-05T21:17:43.023Z,22.27
2019-02-05T21:20:12.387Z,19.45
2019-02-05T21:22:40.211Z,23.50
2019-02-05T21:25:09.994Z,24.10
2019-02-05T21:27:37.309Z,25.12
2019-02-05T21:30:06.252Z,30.40
2019-02-05T21:32:33.965Z,32.58
2019-02-05T21:35:01.674Z,33.23
2019-02-05T21:37:29.357Z,35.98
2019-02-05T21:40:02.429Z,28.62
2019-02-05T21:42:26.217Z,26.17
2019-02-05T21:44:53.857Z,35.43
2019-02-05T21:47:21.221Z,33.20
2019-02-05T21:49:48.557Z,31.20
2019-02-05T21:52:16.601Z,34.50
2019-02-05T21:54:43.739Z,34.18
2019-02-05T21:57:11.261Z,30.90
2019-02-05T21:59:39.002Z,31.62
2019-02-05T22:02:06.728Z,32.48
2019-02-05T22:04:35.027Z,29.95
2019-02-05T22:07:02.610Z,30.52
2019-02-05T22:09:29.777Z,30.50
2019-02-05T22:11:57.360Z,27.73
2019-02-05T22:14:25.089Z,28.80
2019-02-05T22:16:52.498Z,26.35
2019-02-05T22:19:21.062Z,27.73
2019-02-05T22:21:48.897Z,29.02
2019-02-05T22:24:16.346Z,32.65
2019-02-05T22:26:43.621Z,31.60
2019-02-05T22:29:11.349Z,29.87
2019-02-05T22:31:39.436Z,30.05
2019-02-05T22:34:07.358Z,28.30
2019-02-05T22:36:35.193Z,26.65
2019-02-05T22:39:04.297Z,21.30
2019-02-05T22:41:31.995Z,21.05
2019-02-05T22:43:59.713Z,20.68
2019-02-05T22:46:27.145Z,19.73
2019-02-05T22:48:54.886Z,18.98
2019-02-05T22:51:22.521Z,20.30
2019-02-05T22:53:50.321Z,21.75
2019-02-05T22:56:18.158Z,22.35
2019-02-05T22:58:45.985Z,21.87
2019-02-05T23:01:50.542Z,22.25
2019-02-05T23:04:54.832Z,20.92
2019-02-05T23:07:24.276Z,22.70
2019-02-05T23:09:57.489Z,22.07
2019-02-05T23:12:46.329Z,24.30
2019-02-05T23:15:21.466Z,26.52
2019-02-05T23:17:49.089Z,24.12
2019-02-05T23:20:18.041Z,27.58
2019-02-05T23:22:45.605Z,27.50
2019-02-05T23:25:12.862Z,25.88
2019-02-05T23:27:39.938Z,24.02
2019-02-05T23:30:11.577Z,27.58
2019-02-05T23:32:39.153Z,26.52
2019-02-05T23:35:07.005Z,26.77
2019-02-05T23:37:34.462Z,26.68
2019-02-05T23:40:02.021Z,28.27
2019-02-05T23:42:29.389Z,24.20
2019-02-05T23:44:56.552Z,24.98
2019-02-05T23:47:24.037Z,25.92
2019-02-05T23:49:51.518Z,26.57
2019-02-05T23:52:18.930Z,25.00
2019-02-05T23:54:46.109Z,24.00
2019-02-05T23:57:13.366Z,24.52
2019-02-05T23:59:40.801Z,21.97
